sensor_id;sensor_type;location;lat;lon;timestamp;P1;durP1;ratioP1;P2;durP2;ratioP2
10491;SDS011;5293;51.464;-2.566;2023-03-02T00:02:10;4.17;;;2.00;;
10491;SDS011;5293;51.464;-2.566;2023-03-02T00:04:49;7.43;;;2.57;;
10491;SDS011;5293;51.464;-2.566;2023-03-02T00:07:22;4.77;;;1.63;;
10491;SDS011;5293;51.464;-2.566;2023-03-02T00:09:52;7.37;;;2.37;;
10491;SDS011;5293;51.464;-2.566;2023-03-02T00:12:18;4.73;;;2.03;;
10491;SDS011;5293;51.464;-2.566;2023-03-02T00:14:44;4.07;;;2.40;;
10491;SDS011;5293;51.464;-2.566;2023-03-02T00:17:09;5.67;;;2.83;;
10491;SDS011;5293;51.464;-2.566;2023-03-02T00:19:36;3.70;;;2.20;;
10491;SDS011;5293;51.464;-2.566;2023-03-02T00:22:02;6.93;;;2.60;;
10491;SDS011;5293;51.464;-2.566;2023-03-02T00:24:29;6.20;;;2.77;;
10491;SDS011;5293;51.464;-2.566;2023-03-02T00:26:55;5.60;;;2.67;;
10491;SDS011;5293;51.464;-2.566;2023-03-02T00:29:20;4.73;;;2.60;;
10491;SDS011;5293;51.464;-2.566;2023-03-02T00:31:46;6.73;;;2.43;;
10491;SDS011;5293;51.464;-2.566;2023-03-02T00:34:12;7.13;;;3.45;;
10491;SDS011;5293;51.464;-2.566;2023-03-02T00:36:38;3.03;;;2.50;;
10491;SDS011;5293;51.464;-2.566;2023-03-02T00:39:03;3.40;;;2.10;;
10491;SDS011;5293;51.464;-2.566;2023-03-02T00:41:29;2.97;;;2.77;;
10491;SDS011;5293;51.464;-2.566;2023-03-02T00:43:54;4.13;;;2.43;;
10491;SDS011;5293;51.464;-2.566;2023-03-02T00:46:22;3.47;;;2.40;;
10491;SDS011;5293;51.464;-2.566;2023-03-02T00:48:49;6.47;;;3.07;;
10491;SDS011;5293;51.464;-2.566;2023-03-02T00:51:15;3.87;;;2.30;;
10491;SDS011;5293;51.464;-2.566;2023-03-02T00:53:41;4.07;;;2.70;;
10491;SDS011;5293;51.464;-2.566;2023-03-02T00:56:07;6.23;;;2.60;;
10491;SDS011;5293;51.464;-2.566;2023-03-02T00:58:34;5.53;;;2.27;;
10491;SDS011;5293;51.464;-2.566;2023-03-02T01:01:05;6.63;;;3.00;;
10491;SDS011;5293;51.464;-2.566;2023-03-02T01:03:32;7.77;;;2.53;;
10491;SDS011;5293;51.464;-2.566;2023-03-02T01:05:58;5.17;;;2.47;;
10491;SDS011;5293;51.464;-2.566;2023-03-02T01:08:24;5.00;;;2.67;;
10491;SDS011;5293;51.464;-2.566;2023-03-02T01:10:50;5.50;;;2.57;;
10491;SDS011;5293;51.464;-2.566;2023-03-02T01:13:17;5.67;;;2.60;;
10491;SDS011;5293;51.464;-2.566;2023-03-02T01:15:43;3.67;;;2.30;;
10491;SDS011;5293;51.464;-2.566;2023-03-02T01:18:09;4.77;;;2.70;;
10491;SDS011;5293;51.464;-2.566;2023-03-02T01:20:34;3.30;;;2.33;;
10491;SDS011;5293;51.464;-2.566;2023-03-02T01:23:00;7.40;;;2.90;;
10491;SDS011;5293;51.464;-2.566;2023-03-02T01:25:26;3.93;;;2.63;;
10491;SDS011;5293;51.464;-2.566;2023-03-02T01:27:51;4.10;;;2.57;;
10491;SDS011;5293;51.464;-2.566;2023-03-02T01:30:17;192.83;;;42.40;;
10491;SDS011;5293;51.464;-2.566;2023-03-02T01:32:43;6.70;;;5.87;;
10491;SDS011;5293;51.464;-2.566;2023-03-02T01:35:09;24.37;;;6.20;;
10491;SDS011;5293;51.464;-2.566;2023-03-02T01:37:35;17.57;;;10.17;;
10491;SDS011;5293;51.464;-2.566;2023-03-02T01:40:00;8.93;;;4.10;;
10491;SDS011;5293;51.464;-2.566;2023-03-02T01:42:33;6.33;;;2.93;;
10491;SDS011;5293;51.464;-2.566;2023-03-02T01:48:22;7.83;;;3.53;;
10491;SDS011;5293;51.464;-2.566;2023-03-02T01:50:55;3.53;;;2.73;;
10491;SDS011;5293;51.464;-2.566;2023-03-02T01:53:22;6.53;;;2.90;;
10491;SDS011;5293;51.464;-2.566;2023-03-02T01:55:50;4.23;;;2.50;;
10491;SDS011;5293;51.464;-2.566;2023-03-02T01:58:17;5.50;;;2.70;;
10491;SDS011;5293;51.464;-2.566;2023-03-02T02:00:43;4.13;;;2.30;;
10491;SDS011;5293;51.464;-2.566;2023-03-02T02:03:11;5.57;;;3.00;;
10491;SDS011;5293;51.464;-2.566;2023-03-02T02:05:45;7.00;;;2.97;;
10491;SDS011;5293;51.464;-2.566;2023-03-02T02:08:19;5.27;;;2.83;;
10491;SDS011;5293;51.464;-2.566;2023-03-02T02:10:45;4.20;;;2.53;;
10491;SDS011;5293;51.464;-2.566;2023-03-02T02:13:11;6.67;;;2.50;;
10491;SDS011;5293;51.464;-2.566;2023-03-02T02:15:37;7.27;;;3.10;;
10491;SDS011;5293;51.464;-2.566;2023-03-02T02:18:04;4.10;;;2.33;;
10491;SDS011;5293;51.464;-2.566;2023-03-02T02:20:40;7.73;;;2.80;;
10491;SDS011;5293;51.464;-2.566;2023-03-02T02:26:09;3.40;;;2.73;;
10491;SDS011;5293;51.464;-2.566;2023-03-02T02:28:56;5.20;;;2.43;;
10491;SDS011;5293;51.464;-2.566;2023-03-02T02:31:28;8.27;;;2.53;;
10491;SDS011;5293;51.464;-2.566;2023-03-02T02:34:10;5.20;;;2.30;;
10491;SDS011;5293;51.464;-2.566;2023-03-02T02:36:49;4.43;;;2.40;;
10491;SDS011;5293;51.464;-2.566;2023-03-02T02:39:28;2.90;;;2.50;;
10491;SDS011;5293;51.464;-2.566;2023-03-02T02:41:58;3.10;;;2.50;;
10491;SDS011;5293;51.464;-2.566;2023-03-02T02:44:26;4.47;;;2.50;;
10491;SDS011;5293;51.464;-2.566;2023-03-02T02:46:52;3.67;;;2.77;;
10491;SDS011;5293;51.464;-2.566;2023-03-02T02:52:00;5.87;;;2.70;;
10491;SDS011;5293;51.464;-2.566;2023-03-02T02:54:27;3.13;;;2.53;;
10491;SDS011;5293;51.464;-2.566;2023-03-02T02:56:54;5.77;;;2.83;;
10491;SDS011;5293;51.464;-2.566;2023-03-02T03:01:52;8.00;;;3.03;;
10491;SDS011;5293;51.464;-2.566;2023-03-02T03:04:21;4.67;;;2.83;;
10491;SDS011;5293;51.464;-2.566;2023-03-02T03:06:51;4.43;;;3.10;;
10491;SDS011;5293;51.464;-2.566;2023-03-02T03:09:28;5.70;;;3.00;;
10491;SDS011;5293;51.464;-2.566;2023-03-02T03:12:00;4.57;;;2.83;;
10491;SDS011;5293;51.464;-2.566;2023-03-02T03:14:34;8.07;;;3.47;;
10491;SDS011;5293;51.464;-2.566;2023-03-02T03:17:03;6.13;;;3.07;;
10491;SDS011;5293;51.464;-2.566;2023-03-02T03:19:36;8.03;;;3.53;;
10491;SDS011;5293;51.464;-2.566;2023-03-02T03:22:03;8.17;;;4.10;;
10491;SDS011;5293;51.464;-2.566;2023-03-02T03:24:30;6.70;;;3.57;;
10491;SDS011;5293;51.464;-2.566;2023-03-02T03:26:58;4.47;;;2.77;;
10491;SDS011;5293;51.464;-2.566;2023-03-02T03:29:26;4.73;;;3.40;;
10491;SDS011;5293;51.464;-2.566;2023-03-02T03:31:54;4.00;;;3.20;;
10491;SDS011;5293;51.464;-2.566;2023-03-02T03:34:21;5.93;;;3.17;;
10491;SDS011;5293;51.464;-2.566;2023-03-02T03:36:48;7.57;;;3.73;;
10491;SDS011;5293;51.464;-2.566;2023-03-02T03:39:14;5.53;;;3.47;;
10491;SDS011;5293;51.464;-2.566;2023-03-02T03:41:40;6.73;;;3.07;;
10491;SDS011;5293;51.464;-2.566;2023-03-02T03:44:06;9.70;;;3.27;;
10491;SDS011;5293;51.464;-2.566;2023-03-02T03:46:32;7.67;;;3.37;;
10491;SDS011;5293;51.464;-2.566;2023-03-02T03:48:59;8.00;;;3.90;;
10491;SDS011;5293;51.464;-2.566;2023-03-02T03:51:25;6.27;;;3.10;;
10491;SDS011;5293;51.464;-2.566;2023-03-02T03:53:51;10.73;;;3.50;;
10491;SDS011;5293;51.464;-2.566;2023-03-02T03:56:27;4.67;;;3.83;;
10491;SDS011;5293;51.464;-2.566;2023-03-02T03:58:54;7.57;;;3.03;;
10491;SDS011;5293;51.464;-2.566;2023-03-02T04:01:36;4.37;;;2.93;;
10491;SDS011;5293;51.464;-2.566;2023-03-02T04:04:05;5.73;;;3.07;;
10491;SDS011;5293;51.464;-2.566;2023-03-02T04:06:32;7.27;;;3.07;;
10491;SDS011;5293;51.464;-2.566;2023-03-02T04:08:57;5.37;;;2.87;;
10491;SDS011;5293;51.464;-2.566;2023-03-02T04:11:29;9.27;;;3.70;;
10491;SDS011;5293;51.464;-2.566;2023-03-02T04:13:58;4.77;;;3.30;;
10491;SDS011;5293;51.464;-2.566;2023-03-02T04:16:25;8.40;;;3.30;;
10491;SDS011;5293;51.464;-2.566;2023-03-02T04:18:50;4.10;;;3.00;;
10491;SDS011;5293;51.464;-2.566;2023-03-02T04:21:16;6.77;;;2.87;;
10491;SDS011;5293;51.464;-2.566;2023-03-02T04:23:42;3.60;;;2.90;;
10491;SDS011;5293;51.464;-2.566;2023-03-02T04:26:08;6.57;;;3.37;;
10491;SDS011;5293;51.464;-2.566;2023-03-02T04:28:33;5.67;;;3.57;;
10491;SDS011;5293;51.464;-2.566;2023-03-02T04:30:59;4.47;;;2.60;;
10491;SDS011;5293;51.464;-2.566;2023-03-02T04:33:25;5.60;;;2.83;;
10491;SDS011;5293;51.464;-2.566;2023-03-02T04:35:50;10.13;;;3.43;;
10491;SDS011;5293;51.464;-2.566;2023-03-02T04:38:18;6.30;;;2.77;;
10491;SDS011;5293;51.464;-2.566;2023-03-02T04:40:44;4.93;;;3.47;;
10491;SDS011;5293;51.464;-2.566;2023-03-02T04:43:10;5.77;;;2.60;;
10491;SDS011;5293;51.464;-2.566;2023-03-02T04:45:36;5.53;;;2.77;;
10491;SDS011;5293;51.464;-2.566;2023-03-02T04:48:02;6.03;;;3.00;;
10491;SDS011;5293;51.464;-2.566;2023-03-02T04:50:28;5.37;;;2.53;;
10491;SDS011;5293;51.464;-2.566;2023-03-02T04:52:54;7.80;;;2.93;;
10491;SDS011;5293;51.464;-2.566;2023-03-02T04:55:22;2.63;;;2.13;;
10491;SDS011;5293;51.464;-2.566;2023-03-02T04:57:49;3.37;;;2.50;;
10491;SDS011;5293;51.464;-2.566;2023-03-02T05:00:15;6.03;;;2.80;;
10491;SDS011;5293;51.464;-2.566;2023-03-02T05:02:42;5.10;;;2.43;;
10491;SDS011;5293;51.464;-2.566;2023-03-02T05:05:12;4.37;;;2.93;;
10491;SDS011;5293;51.464;-2.566;2023-03-02T05:07:41;8.30;;;3.13;;
10491;SDS011;5293;51.464;-2.566;2023-03-02T05:10:07;4.57;;;2.07;;
10491;SDS011;5293;51.464;-2.566;2023-03-02T05:12:33;4.50;;;2.70;;
10491;SDS011;5293;51.464;-2.566;2023-03-02T05:15:18;4.47;;;2.70;;
10491;SDS011;5293;51.464;-2.566;2023-03-02T05:17:47;3.20;;;2.40;;
10491;SDS011;5293;51.464;-2.566;2023-03-02T05:20:13;4.00;;;2.60;;
10491;SDS011;5293;51.464;-2.566;2023-03-02T05:22:39;5.90;;;2.53;;
10491;SDS011;5293;51.464;-2.566;2023-03-02T05:25:04;4.13;;;2.57;;
10491;SDS011;5293;51.464;-2.566;2023-03-02T05:27:31;3.60;;;2.93;;
10491;SDS011;5293;51.464;-2.566;2023-03-02T05:29:56;5.73;;;3.23;;
10491;SDS011;5293;51.464;-2.566;2023-03-02T05:32:22;5.07;;;2.70;;
10491;SDS011;5293;51.464;-2.566;2023-03-02T05:34:47;3.97;;;2.83;;
10491;SDS011;5293;51.464;-2.566;2023-03-02T05:37:13;3.10;;;2.40;;
10491;SDS011;5293;51.464;-2.566;2023-03-02T05:39:39;6.70;;;2.37;;
10491;SDS011;5293;51.464;-2.566;2023-03-02T05:42:04;2.73;;;2.20;;
10491;SDS011;5293;51.464;-2.566;2023-03-02T05:44:30;2.43;;;2.23;;
10491;SDS011;5293;51.464;-2.566;2023-03-02T05:46:56;3.33;;;2.43;;
10491;SDS011;5293;51.464;-2.566;2023-03-02T05:49:22;3.03;;;2.20;;
10491;SDS011;5293;51.464;-2.566;2023-03-02T05:51:48;3.33;;;2.67;;
10491;SDS011;5293;51.464;-2.566;2023-03-02T05:54:13;6.03;;;2.73;;
10491;SDS011;5293;51.464;-2.566;2023-03-02T05:56:40;3.93;;;2.53;;
10491;SDS011;5293;51.464;-2.566;2023-03-02T05:59:06;2.97;;;2.67;;
10491;SDS011;5293;51.464;-2.566;2023-03-02T06:01:32;4.40;;;3.37;;
10491;SDS011;5293;51.464;-2.566;2023-03-02T06:03:59;4.90;;;2.77;;
10491;SDS011;5293;51.464;-2.566;2023-03-02T06:06:24;4.73;;;2.70;;
10491;SDS011;5293;51.464;-2.566;2023-03-02T06:08:50;4.50;;;2.80;;
10491;SDS011;5293;51.464;-2.566;2023-03-02T06:11:16;4.40;;;2.80;;
10491;SDS011;5293;51.464;-2.566;2023-03-02T06:13:41;4.83;;;2.77;;
10491;SDS011;5293;51.464;-2.566;2023-03-02T06:16:07;3.77;;;2.70;;
10491;SDS011;5293;51.464;-2.566;2023-03-02T06:18:33;3.97;;;2.93;;
10491;SDS011;5293;51.464;-2.566;2023-03-02T06:20:59;5.97;;;2.93;;
10491;SDS011;5293;51.464;-2.566;2023-03-02T06:23:25;6.50;;;2.97;;
10491;SDS011;5293;51.464;-2.566;2023-03-02T06:25:51;7.03;;;2.93;;
10491;SDS011;5293;51.464;-2.566;2023-03-02T06:28:17;3.30;;;2.70;;
10491;SDS011;5293;51.464;-2.566;2023-03-02T06:30:44;4.10;;;2.70;;
10491;SDS011;5293;51.464;-2.566;2023-03-02T06:33:12;3.40;;;2.73;;
10491;SDS011;5293;51.464;-2.566;2023-03-02T06:35:40;4.27;;;2.87;;
10491;SDS011;5293;51.464;-2.566;2023-03-02T06:38:06;6.77;;;2.90;;
10491;SDS011;5293;51.464;-2.566;2023-03-02T06:40:32;6.30;;;3.63;;
10491;SDS011;5293;51.464;-2.566;2023-03-02T06:42:57;3.63;;;3.30;;
10491;SDS011;5293;51.464;-2.566;2023-03-02T06:45:24;5.13;;;3.17;;
10491;SDS011;5293;51.464;-2.566;2023-03-02T06:47:51;6.27;;;3.30;;
10491;SDS011;5293;51.464;-2.566;2023-03-02T06:50:18;3.13;;;2.80;;
10491;SDS011;5293;51.464;-2.566;2023-03-02T06:52:43;4.47;;;3.77;;
10491;SDS011;5293;51.464;-2.566;2023-03-02T06:55:09;3.63;;;3.10;;
10491;SDS011;5293;51.464;-2.566;2023-03-02T06:57:35;3.93;;;3.27;;
10491;SDS011;5293;51.464;-2.566;2023-03-02T07:00:02;5.93;;;4.10;;
10491;SDS011;5293;51.464;-2.566;2023-03-02T07:02:50;5.20;;;3.53;;
10491;SDS011;5293;51.464;-2.566;2023-03-02T07:05:17;3.60;;;3.30;;
10491;SDS011;5293;51.464;-2.566;2023-03-02T07:07:43;6.03;;;3.47;;
10491;SDS011;5293;51.464;-2.566;2023-03-02T07:10:09;3.97;;;2.90;;
10491;SDS011;5293;51.464;-2.566;2023-03-02T07:12:37;3.40;;;3.10;;
10491;SDS011;5293;51.464;-2.566;2023-03-02T07:15:04;4.57;;;3.20;;
10491;SDS011;5293;51.464;-2.566;2023-03-02T07:17:35;3.00;;;2.57;;
10491;SDS011;5293;51.464;-2.566;2023-03-02T07:20:01;2.87;;;2.57;;
10491;SDS011;5293;51.464;-2.566;2023-03-02T07:22:31;2.70;;;2.50;;
10491;SDS011;5293;51.464;-2.566;2023-03-02T07:24:56;4.40;;;2.67;;
10491;SDS011;5293;51.464;-2.566;2023-03-02T07:27:22;2.90;;;2.70;;
10491;SDS011;5293;51.464;-2.566;2023-03-02T07:29:48;3.50;;;2.60;;
10491;SDS011;5293;51.464;-2.566;2023-03-02T07:32:13;3.13;;;2.70;;
10491;SDS011;5293;51.464;-2.566;2023-03-02T07:34:39;2.87;;;2.43;;
10491;SDS011;5293;51.464;-2.566;2023-03-02T07:37:05;4.13;;;2.90;;
10491;SDS011;5293;51.464;-2.566;2023-03-02T07:39:31;4.17;;;3.10;;
10491;SDS011;5293;51.464;-2.566;2023-03-02T07:41:57;3.60;;;3.30;;
10491;SDS011;5293;51.464;-2.566;2023-03-02T07:44:24;5.70;;;3.90;;
10491;SDS011;5293;51.464;-2.566;2023-03-02T07:46:50;4.03;;;3.60;;
10491;SDS011;5293;51.464;-2.566;2023-03-02T07:49:15;6.27;;;4.07;;
10491;SDS011;5293;51.464;-2.566;2023-03-02T07:51:41;5.87;;;4.23;;
10491;SDS011;5293;51.464;-2.566;2023-03-02T07:54:07;7.93;;;4.27;;
10491;SDS011;5293;51.464;-2.566;2023-03-02T07:56:32;5.90;;;3.70;;
10491;SDS011;5293;51.464;-2.566;2023-03-02T07:58:58;4.67;;;4.07;;
10491;SDS011;5293;51.464;-2.566;2023-03-02T08:01:24;4.73;;;4.27;;
10491;SDS011;5293;51.464;-2.566;2023-03-02T08:03:49;7.23;;;4.47;;
10491;SDS011;5293;51.464;-2.566;2023-03-02T08:06:15;6.80;;;4.77;;
10491;SDS011;5293;51.464;-2.566;2023-03-02T08:08:41;8.20;;;4.57;;
10491;SDS011;5293;51.464;-2.566;2023-03-02T08:11:14;6.87;;;4.40;;
10491;SDS011;5293;51.464;-2.566;2023-03-02T08:13:41;4.67;;;4.13;;
10491;SDS011;5293;51.464;-2.566;2023-03-02T08:16:08;5.63;;;4.07;;
10491;SDS011;5293;51.464;-2.566;2023-03-02T08:18:35;7.50;;;4.27;;
10491;SDS011;5293;51.464;-2.566;2023-03-02T08:21:02;5.83;;;4.87;;
10491;SDS011;5293;51.464;-2.566;2023-03-02T08:23:28;7.30;;;4.03;;
10491;SDS011;5293;51.464;-2.566;2023-03-02T08:25:54;7.60;;;4.40;;
10491;SDS011;5293;51.464;-2.566;2023-03-02T08:28:20;7.87;;;5.13;;
10491;SDS011;5293;51.464;-2.566;2023-03-02T08:30:56;7.67;;;5.13;;
10491;SDS011;5293;51.464;-2.566;2023-03-02T08:33:23;5.63;;;5.07;;
10491;SDS011;5293;51.464;-2.566;2023-03-02T08:35:53;8.67;;;5.57;;
10491;SDS011;5293;51.464;-2.566;2023-03-02T08:38:23;6.10;;;5.00;;
10491;SDS011;5293;51.464;-2.566;2023-03-02T08:40:50;7.57;;;5.40;;
10491;SDS011;5293;51.464;-2.566;2023-03-02T08:43:16;9.90;;;5.90;;
10491;SDS011;5293;51.464;-2.566;2023-03-02T08:45:43;8.37;;;6.23;;
10491;SDS011;5293;51.464;-2.566;2023-03-02T08:48:09;7.93;;;5.97;;
10491;SDS011;5293;51.464;-2.566;2023-03-02T08:50:35;8.43;;;6.07;;
10491;SDS011;5293;51.464;-2.566;2023-03-02T08:53:00;9.47;;;6.83;;
10491;SDS011;5293;51.464;-2.566;2023-03-02T08:55:26;8.13;;;5.67;;
10491;SDS011;5293;51.464;-2.566;2023-03-02T08:57:52;11.03;;;5.87;;
10491;SDS011;5293;51.464;-2.566;2023-03-02T09:00:18;10.77;;;6.60;;
10491;SDS011;5293;51.464;-2.566;2023-03-02T09:02:44;11.50;;;6.53;;
10491;SDS011;5293;51.464;-2.566;2023-03-02T09:05:10;8.60;;;6.17;;
10491;SDS011;5293;51.464;-2.566;2023-03-02T09:07:36;9.33;;;6.23;;
10491;SDS011;5293;51.464;-2.566;2023-03-02T09:10:02;7.97;;;6.13;;
10491;SDS011;5293;51.464;-2.566;2023-03-02T09:12:28;9.27;;;6.83;;
10491;SDS011;5293;51.464;-2.566;2023-03-02T09:14:54;8.47;;;6.37;;
10491;SDS011;5293;51.464;-2.566;2023-03-02T09:17:19;10.27;;;7.27;;
10491;SDS011;5293;51.464;-2.566;2023-03-02T09:19:45;9.40;;;7.20;;
10491;SDS011;5293;51.464;-2.566;2023-03-02T09:22:11;10.67;;;7.17;;
10491;SDS011;5293;51.464;-2.566;2023-03-02T09:24:36;9.80;;;7.77;;
10491;SDS011;5293;51.464;-2.566;2023-03-02T09:27:02;11.87;;;7.50;;
10491;SDS011;5293;51.464;-2.566;2023-03-02T09:29:28;12.30;;;7.10;;
10491;SDS011;5293;51.464;-2.566;2023-03-02T09:31:54;9.27;;;6.80;;
10491;SDS011;5293;51.464;-2.566;2023-03-02T09:34:19;10.70;;;7.23;;
10491;SDS011;5293;51.464;-2.566;2023-03-02T09:36:45;9.47;;;7.53;;
10491;SDS011;5293;51.464;-2.566;2023-03-02T09:39:11;10.97;;;7.93;;
10491;SDS011;5293;51.464;-2.566;2023-03-02T09:41:46;9.33;;;6.57;;
10491;SDS011;5293;51.464;-2.566;2023-03-02T09:47:15;10.63;;;7.03;;
10491;SDS011;5293;51.464;-2.566;2023-03-02T09:49:59;10.50;;;7.00;;
10491;SDS011;5293;51.464;-2.566;2023-03-02T09:57:40;10.90;;;7.00;;
10491;SDS011;5293;51.464;-2.566;2023-03-02T10:00:11;8.53;;;6.33;;
10491;SDS011;5293;51.464;-2.566;2023-03-02T10:02:46;13.43;;;7.77;;
10491;SDS011;5293;51.464;-2.566;2023-03-02T10:05:22;11.43;;;7.63;;
10491;SDS011;5293;51.464;-2.566;2023-03-02T10:07:52;16.27;;;7.90;;
10491;SDS011;5293;51.464;-2.566;2023-03-02T10:15:34;10.60;;;7.60;;
10491;SDS011;5293;51.464;-2.566;2023-03-02T10:18:42;11.07;;;8.13;;
10491;SDS011;5293;51.464;-2.566;2023-03-02T10:21:18;11.07;;;7.83;;
10491;SDS011;5293;51.464;-2.566;2023-03-02T10:24:00;11.17;;;7.67;;
10491;SDS011;5293;51.464;-2.566;2023-03-02T10:26:44;12.90;;;8.70;;
10491;SDS011;5293;51.464;-2.566;2023-03-02T10:32:34;17.47;;;11.07;;
10491;SDS011;5293;51.464;-2.566;2023-03-02T10:35:01;14.57;;;9.00;;
10491;SDS011;5293;51.464;-2.566;2023-03-02T10:37:40;15.37;;;9.50;;
10491;SDS011;5293;51.464;-2.566;2023-03-02T10:40:08;12.70;;;9.70;;
10491;SDS011;5293;51.464;-2.566;2023-03-02T10:42:51;15.27;;;10.23;;
10491;SDS011;5293;51.464;-2.566;2023-03-02T10:48:01;18.37;;;10.33;;
10491;SDS011;5293;51.464;-2.566;2023-03-02T10:50:31;15.67;;;10.43;;
10491;SDS011;5293;51.464;-2.566;2023-03-02T10:52:57;16.43;;;11.07;;
10491;SDS011;5293;51.464;-2.566;2023-03-02T10:55:24;13.50;;;9.97;;
10491;SDS011;5293;51.464;-2.566;2023-03-02T10:58:06;17.70;;;10.60;;
10491;SDS011;5293;51.464;-2.566;2023-03-02T11:03:28;15.03;;;9.87;;
10491;SDS011;5293;51.464;-2.566;2023-03-02T11:05:55;17.23;;;9.93;;
10491;SDS011;5293;51.464;-2.566;2023-03-02T11:08:23;15.67;;;10.60;;
10491;SDS011;5293;51.464;-2.566;2023-03-02T11:10:59;12.97;;;10.17;;
10491;SDS011;5293;51.464;-2.566;2023-03-02T11:13:34;16.27;;;10.47;;
10491;SDS011;5293;51.464;-2.566;2023-03-02T11:16:19;15.07;;;9.67;;
10491;SDS011;5293;51.464;-2.566;2023-03-02T11:21:45;18.57;;;10.83;;
10491;SDS011;5293;51.464;-2.566;2023-03-02T11:24:25;18.93;;;10.87;;
10491;SDS011;5293;51.464;-2.566;2023-03-02T11:27:07;16.83;;;11.27;;
10491;SDS011;5293;51.464;-2.566;2023-03-02T11:29:48;15.70;;;11.10;;
10491;SDS011;5293;51.464;-2.566;2023-03-02T11:35:03;16.00;;;10.30;;
10491;SDS011;5293;51.464;-2.566;2023-03-02T11:37:45;15.47;;;10.43;;
10491;SDS011;5293;51.464;-2.566;2023-03-02T11:40:25;18.33;;;10.50;;
10491;SDS011;5293;51.464;-2.566;2023-03-02T11:42:55;16.83;;;10.23;;
10491;SDS011;5293;51.464;-2.566;2023-03-02T11:45:25;15.30;;;9.93;;
10491;SDS011;5293;51.464;-2.566;2023-03-02T11:53:32;18.40;;;10.53;;
10491;SDS011;5293;51.464;-2.566;2023-03-02T11:56:01;17.63;;;11.20;;
10491;SDS011;5293;51.464;-2.566;2023-03-02T11:58:27;16.33;;;11.13;;
10491;SDS011;5293;51.464;-2.566;2023-03-02T12:00:53;17.17;;;10.53;;
10491;SDS011;5293;51.464;-2.566;2023-03-02T12:06:00;13.67;;;9.63;;
10491;SDS011;5293;51.464;-2.566;2023-03-02T12:11:46;16.03;;;10.53;;
10491;SDS011;5293;51.464;-2.566;2023-03-02T12:14:52;16.93;;;10.83;;
10491;SDS011;5293;51.464;-2.566;2023-03-02T12:17:29;15.33;;;10.23;;
10491;SDS011;5293;51.464;-2.566;2023-03-02T12:20:07;13.83;;;8.77;;
10491;SDS011;5293;51.464;-2.566;2023-03-02T12:22:48;12.83;;;9.33;;
10491;SDS011;5293;51.464;-2.566;2023-03-02T12:27:42;15.83;;;10.77;;
10491;SDS011;5293;51.464;-2.566;2023-03-02T12:32:35;15.83;;;10.67;;
10491;SDS011;5293;51.464;-2.566;2023-03-02T12:45:33;14.63;;;9.97;;
10491;SDS011;5293;51.464;-2.566;2023-03-02T12:51:04;14.23;;;9.70;;
10491;SDS011;5293;51.464;-2.566;2023-03-02T12:53:36;14.93;;;9.80;;
10491;SDS011;5293;51.464;-2.566;2023-03-02T12:56:03;13.57;;;9.33;;
10491;SDS011;5293;51.464;-2.566;2023-03-02T12:58:31;17.27;;;9.80;;
10491;SDS011;5293;51.464;-2.566;2023-03-02T13:01:01;16.23;;;10.40;;
10491;SDS011;5293;51.464;-2.566;2023-03-02T13:03:29;13.93;;;10.00;;
10491;SDS011;5293;51.464;-2.566;2023-03-02T13:06:02;14.97;;;10.87;;
10491;SDS011;5293;51.464;-2.566;2023-03-02T13:08:35;15.47;;;11.13;;
10491;SDS011;5293;51.464;-2.566;2023-03-02T13:11:00;15.13;;;10.33;;
10491;SDS011;5293;51.464;-2.566;2023-03-02T13:13:33;14.83;;;9.63;;
10491;SDS011;5293;51.464;-2.566;2023-03-02T13:16:03;12.80;;;9.70;;
10491;SDS011;5293;51.464;-2.566;2023-03-02T13:18:33;13.77;;;9.97;;
10491;SDS011;5293;51.464;-2.566;2023-03-02T13:21:03;13.13;;;9.83;;
10491;SDS011;5293;51.464;-2.566;2023-03-02T13:23:31;14.23;;;9.43;;
10491;SDS011;5293;51.464;-2.566;2023-03-02T13:25:59;15.30;;;9.17;;
10491;SDS011;5293;51.464;-2.566;2023-03-02T13:31:03;16.97;;;10.43;;
10491;SDS011;5293;51.464;-2.566;2023-03-02T13:33:44;15.63;;;10.13;;
10491;SDS011;5293;51.464;-2.566;2023-03-02T13:36:18;14.13;;;9.70;;
10491;SDS011;5293;51.464;-2.566;2023-03-02T13:38:56;13.33;;;9.20;;
10491;SDS011;5293;51.464;-2.566;2023-03-02T13:41:30;16.57;;;9.23;;
10491;SDS011;5293;51.464;-2.566;2023-03-02T13:43:58;12.67;;;9.13;;
10491;SDS011;5293;51.464;-2.566;2023-03-02T13:46:45;14.47;;;9.33;;
10491;SDS011;5293;51.464;-2.566;2023-03-02T13:49:11;13.27;;;9.40;;
10491;SDS011;5293;51.464;-2.566;2023-03-02T13:51:44;12.87;;;10.57;;
10491;SDS011;5293;51.464;-2.566;2023-03-02T13:56:57;15.53;;;10.13;;
10491;SDS011;5293;51.464;-2.566;2023-03-02T13:59:24;15.17;;;9.40;;
10491;SDS011;5293;51.464;-2.566;2023-03-02T14:01:50;14.00;;;9.10;;
10491;SDS011;5293;51.464;-2.566;2023-03-02T14:04:17;12.87;;;9.63;;
10491;SDS011;5293;51.464;-2.566;2023-03-02T14:06:47;15.40;;;9.73;;
10491;SDS011;5293;51.464;-2.566;2023-03-02T14:09:13;12.73;;;9.47;;
10491;SDS011;5293;51.464;-2.566;2023-03-02T14:11:39;16.27;;;10.47;;
10491;SDS011;5293;51.464;-2.566;2023-03-02T14:14:10;15.87;;;10.50;;
10491;SDS011;5293;51.464;-2.566;2023-03-02T14:16:39;14.97;;;10.07;;
10491;SDS011;5293;51.464;-2.566;2023-03-02T14:19:05;12.97;;;10.47;;
10491;SDS011;5293;51.464;-2.566;2023-03-02T14:21:31;17.97;;;10.03;;
10491;SDS011;5293;51.464;-2.566;2023-03-02T14:23:57;15.00;;;10.27;;
10491;SDS011;5293;51.464;-2.566;2023-03-02T14:29:05;13.63;;;10.43;;
10491;SDS011;5293;51.464;-2.566;2023-03-02T14:31:45;18.13;;;10.53;;
10491;SDS011;5293;51.464;-2.566;2023-03-02T14:34:11;14.77;;;10.50;;
10491;SDS011;5293;51.464;-2.566;2023-03-02T14:36:37;12.37;;;9.60;;
10491;SDS011;5293;51.464;-2.566;2023-03-02T14:39:05;14.57;;;10.23;;
10491;SDS011;5293;51.464;-2.566;2023-03-02T14:41:46;13.73;;;10.57;;
10491;SDS011;5293;51.464;-2.566;2023-03-02T14:44:12;14.77;;;9.80;;
10491;SDS011;5293;51.464;-2.566;2023-03-02T14:46:38;14.87;;;9.53;;
10491;SDS011;5293;51.464;-2.566;2023-03-02T14:49:04;17.30;;;9.40;;
10491;SDS011;5293;51.464;-2.566;2023-03-02T14:51:30;16.87;;;10.20;;
10491;SDS011;5293;51.464;-2.566;2023-03-02T14:53:59;15.87;;;10.20;;
10491;SDS011;5293;51.464;-2.566;2023-03-02T14:56:27;14.27;;;9.47;;
10491;SDS011;5293;51.464;-2.566;2023-03-02T14:58:53;13.53;;;9.83;;
10491;SDS011;5293;51.464;-2.566;2023-03-02T15:01:19;12.63;;;9.27;;
10491;SDS011;5293;51.464;-2.566;2023-03-02T15:03:47;12.97;;;9.43;;
10491;SDS011;5293;51.464;-2.566;2023-03-02T15:06:47;15.03;;;9.67;;
10491;SDS011;5293;51.464;-2.566;2023-03-02T15:09:07;13.97;;;9.73;;
10491;SDS011;5293;51.464;-2.566;2023-03-02T15:11:34;13.13;;;9.17;;
10491;SDS011;5293;51.464;-2.566;2023-03-02T15:14:00;14.63;;;8.93;;
10491;SDS011;5293;51.464;-2.566;2023-03-02T15:16:25;14.63;;;9.47;;
10491;SDS011;5293;51.464;-2.566;2023-03-02T15:18:51;14.97;;;9.33;;
10491;SDS011;5293;51.464;-2.566;2023-03-02T15:21:19;17.40;;;9.10;;
10491;SDS011;5293;51.464;-2.566;2023-03-02T15:23:46;15.90;;;10.43;;
10491;SDS011;5293;51.464;-2.566;2023-03-02T15:26:12;10.60;;;8.73;;
10491;SDS011;5293;51.464;-2.566;2023-03-02T15:28:39;14.80;;;9.20;;
10491;SDS011;5293;51.464;-2.566;2023-03-02T15:31:06;11.40;;;8.07;;
10491;SDS011;5293;51.464;-2.566;2023-03-02T15:33:36;9.90;;;7.83;;
10491;SDS011;5293;51.464;-2.566;2023-03-02T15:36:02;13.33;;;8.50;;
10491;SDS011;5293;51.464;-2.566;2023-03-02T15:38:30;12.10;;;8.00;;
10491;SDS011;5293;51.464;-2.566;2023-03-02T15:40:56;11.30;;;7.40;;
10491;SDS011;5293;51.464;-2.566;2023-03-02T15:43:22;11.00;;;7.47;;
10491;SDS011;5293;51.464;-2.566;2023-03-02T15:45:48;13.40;;;8.37;;
10491;SDS011;5293;51.464;-2.566;2023-03-02T15:48:14;10.17;;;7.87;;
10491;SDS011;5293;51.464;-2.566;2023-03-02T15:50:40;11.10;;;7.13;;
10491;SDS011;5293;51.464;-2.566;2023-03-02T15:53:05;12.63;;;7.10;;
10491;SDS011;5293;51.464;-2.566;2023-03-02T15:55:31;10.37;;;7.57;;
10491;SDS011;5293;51.464;-2.566;2023-03-02T15:57:57;12.53;;;7.67;;
10491;SDS011;5293;51.464;-2.566;2023-03-02T16:00:24;12.33;;;8.13;;
10491;SDS011;5293;51.464;-2.566;2023-03-02T16:02:50;10.20;;;6.63;;
10491;SDS011;5293;51.464;-2.566;2023-03-02T16:05:15;15.03;;;7.67;;
10491;SDS011;5293;51.464;-2.566;2023-03-02T16:07:41;14.23;;;7.33;;